Time;durP1;ratioP1;P1;durP2;ratioP2;P2;SDS_P1;SDS_P2;PMS_P1;PMS_P2;Temp;Humidity;BMP_temperature;BMP_pressure;BME280_temperature;BME280_humidity;BME280_pressure;Samples;Min_cycle;Max_cycle;Signal;HPM_P1;HPM_P2
2024/04/06 00:01:38;;;;;;;2.20;1.40;;;;;;;16.51;66.32;98765.63;5114644;27;41999;-83
2024/04/06 00:04:06;;;;;;;1.50;1.40;;;;;;;16.43;66.50;98749.44;5132923;27;39771;-85
2024/04/06 00:06:34;;;;;;;1.40;1.17;;;;;;;16.52;66.55;98772.69;5134029;27;41138;-83
2024/04/06 00:09:00;;;;;;;1.50;1.40;;;;;;;16.49;66.66;98783.63;5099115;27;41715;-82
2024/04/06 00:11:28;;;;;;;1.33;1.23;;;;;;;16.31;66.75;98756.72;5115410;27;41002;-84
2024/04/06 00:13:55;;;;;;;1.53;1.30;;;;;;;16.46;66.59;98782.06;5099196;27;39201;-87
2024/04/06 00:16:22;;;;;;;1.50;1.20;;;;;;;16.46;66.78;98779.41;5118898;27;41487;-86
2024/04/06 00:18:49;;;;;;;1.13;1.00;;;;;;;16.45;66.79;98776.84;5101498;27;42862;-86
2024/04/06 00:21:18;;;;;;;1.57;1.47;;;;;;;16.35;67.30;98757.25;5118940;27;41037;-86
2024/04/06 00:23:45;;;;;;;1.30;1.20;;;;;;;16.44;66.88;98775.19;5118463;27;40655;-85
2024/04/06 00:26:12;;;;;;;1.93;1.20;;;;;;;16.40;66.97;98773.75;5118478;27;41653;-86
2024/04/06 00:28:39;;;;;;;1.30;1.20;;;;;;;16.29;67.06;98757.81;5118730;27;43836;-85
2024/04/06 00:31:06;;;;;;;1.77;1.50;;;;;;;16.39;67.60;98788.94;5118380;27;42871;-84
2024/04/06 00:33:32;;;;;;;1.40;1.20;;;;;;;16.28;67.18;98775.69;5118326;27;39121;-86
2024/04/06 00:36:00;;;;;;;1.30;1.10;;;;;;;16.36;67.34;98799.06;5118736;27;41704;-85
2024/04/06 00:38:28;;;;;;;1.70;1.57;;;;;;;16.35;67.75;98800.03;5100847;27;42424;-83
2024/04/06 00:40:55;;;;;;;1.83;1.37;;;;;;;16.36;67.73;98793.72;5118542;27;41124;-85
2024/04/06 00:43:24;;;;;;;1.10;1.00;;;;;;;16.35;67.81;98800.03;5118071;27;41254;-84
2024/04/06 00:45:51;;;;;;;1.20;1.00;;;;;;;16.34;68.22;98803.69;5101002;27;40381;-84
2024/04/06 00:48:18;;;;;;;1.40;1.30;;;;;;;16.33;68.17;98801.97;5101027;27;42990;-81
2024/04/06 00:50:46;;;;;;;1.30;1.20;;;;;;;16.29;67.83;98808.59;5118044;27;41275;-81
2024/04/06 00:53:12;;;;;;;1.27;0.90;;;;;;;16.19;67.84;98784.50;5117811;27;38560;-86
2024/04/06 00:55:42;;;;;;;1.30;0.97;;;;;;;16.27;68.44;98794.50;5118080;27;42168;-84
2024/04/06 00:58:08;;;;;;;1.30;1.20;;;;;;;16.15;68.33;98785.75;5117964;27;42772;-82
2024/04/06 01:00:36;;;;;;;1.47;1.37;;;;;;;16.22;68.81;98791.38;5118026;27;43232;-84
2024/04/06 01:03:03;;;;;;;1.70;1.60;;;;;;;16.19;69.56;98786.31;5135277;27;39856;-87
2024/04/06 01:05:31;;;;;;;1.20;1.10;;;;;;;16.14;69.68;98790.22;5100955;27;40865;-85
2024/04/06 01:07:59;;;;;;;1.50;1.30;;;;;;;16.03;69.66;98779.63;5136314;27;43767;-85
2024/04/06 01:10:27;;;;;;;1.50;1.30;;;;;;;16.06;69.88;98787.38;5118207;27;43486;-84
2024/04/06 01:12:56;;;;;;;1.50;1.23;;;;;;;16.05;71.65;98787.50;5117853;27;40126;-87
2024/04/06 01:15:24;;;;;;;1.70;1.43;;;;;;;16.01;71.50;98789.59;5135092;27;42672;-84
2024/04/06 01:17:52;;;;;;;1.50;1.27;;;;;;;16.00;70.96;98795.91;5100416;27;41791;-85
2024/04/06 01:20:22;;;;;;;1.60;1.50;;;;;;;15.90;70.86;98780.81;5100844;27;40778;-85
2024/04/06 01:22:48;;;;;;;1.83;1.20;;;;;;;16.05;71.05;98806.22;5100754;27;39075;-85
2024/04/06 01:25:18;;;;;;;1.40;1.30;;;;;;;15.97;70.63;98782.81;5100214;27;41813;-85
2024/04/06 01:27:45;;;;;;;3.17;1.30;;;;;;;16.00;71.67;98787.91;5100370;27;42706;-83
2024/04/06 01:30:15;;;;;;;2.17;1.40;;;;;;;16.06;71.19;98795.41;5101032;27;42430;-86
2024/04/06 01:32:45;;;;;;;2.77;1.43;;;;;;;16.02;71.35;98796.63;5100367;27;39716;-84
2024/04/06 01:35:13;;;;;;;4.70;1.57;;;;;;;16.01;71.77;98794.94;5130742;27;41979;-80
2024/04/06 01:37:39;;;;;;;1.97;1.30;;;;;;;16.01;71.85;98789.59;5129363;27;41942;-84
2024/04/06 01:40:09;;;;;;;1.50;1.40;;;;;;;16.11;71.68;98801.19;5117853;27;42124;-84
2024/04/06 01:42:37;;;;;;;2.40;1.50;;;;;;;16.13;71.62;98801.06;5117394;27;39681;-84
2024/04/06 01:45:06;;;;;;;1.77;1.67;;;;;;;15.93;71.11;98765.38;5117390;27;42675;-83
2024/04/06 01:47:33;;;;;;;1.30;1.20;;;;;;;16.12;71.22;98807.38;5117082;27;41926;-83
2024/04/06 01:50:04;;;;;;;2.33;1.20;;;;;;;16.00;71.07;98787.91;5100156;27;42391;-87
2024/04/06 01:52:30;;;;;;;1.30;1.20;;;;;;;16.10;70.95;98810.16;5117229;27;38927;-84
2024/04/06 01:54:58;;;;;;;1.23;1.13;;;;;;;15.98;70.99;98794.34;5100458;27;43004;-86
2024/04/06 01:57:25;;;;;;;1.43;1.13;;;;;;;16.10;70.96;98815.50;5117138;27;43103;-87
2024/04/06 01:59:53;;;;;;;2.27;1.30;;;;;;;16.08;71.12;98809.44;5117738;27;43169;-82
2024/04/06 02:02:20;;;;;;;1.77;1.40;;;;;;;16.09;70.90;98808.47;5100324;27;39652;-85
2024/04/06 02:04:47;;;;;;;1.50;1.40;;;;;;;15.96;70.97;98797.13;5117504;27;40493;-84
2024/04/06 02:07:14;;;;;;;1.40;1.30;;;;;;;15.80;70.87;98764.72;5116993;27;42852;-82
2024/04/06 02:09:41;;;;;;;1.80;1.33;;;;;;;16.05;71.23;98804.38;5117021;27;43457;-83
2024/04/06 02:12:08;;;;;;;1.97;1.20;;;;;;;16.07;71.22;98813.09;5134270;27;39890;-84
2024/04/06 02:14:36;;;;;;;1.30;1.20;;;;;;;15.99;71.41;98796.03;5116967;27;42192;-82
2024/04/06 02:17:06;;;;;;;3.03;1.40;;;;;;;16.07;71.34;98805.09;5134005;27;42869;-85
2024/04/06 02:19:33;;;;;;;1.63;1.40;;;;;;;15.96;71.30;98786.47;5116396;27;43462;-82
2024/04/06 02:21:59;;;;;;;1.50;1.20;;;;;;;15.94;71.34;98785.78;5135238;27;40084;-86
2024/04/06 02:24:27;;;;;;;1.57;1.03;;;;;;;15.99;71.94;98791.53;5116801;27;41787;-84
2024/04/06 02:26:54;;;;;;;1.70;1.47;;;;;;;15.78;73.07;98764.84;5099670;27;41642;-84
2024/04/06 02:29:21;;;;;;;2.23;1.57;;;;;;;15.76;73.30;98781.97;5099288;27;42083;-83
2024/04/06 02:31:48;;;;;;;2.00;1.40;;;;;;;15.52;73.40;98763.50;5116591;27;39641;-85
2024/04/06 02:34:17;;;;;;;2.27;1.50;;;;;;;15.55;73.57;98794.47;5099849;27;41808;-82
2024/04/06 02:36:43;;;;;;;3.20;1.40;;;;;;;15.06;73.56;98731.81;5115484;27;42770;-82
2024/04/06 02:39:11;;;;;;;3.10;1.60;;;;;;;15.37;73.60;98795.00;5133402;27;42061;-83
2024/04/06 02:41:37;;;;;;;1.80;1.43;;;;;;;15.18;73.58;98765.50;5116369;27;39781;-84
2024/04/06 02:44:05;;;;;;;1.60;1.50;;;;;;;15.19;74.11;98780.53;5116361;27;40633;-85
2024/04/06 02:46:31;;;;;;;1.83;1.23;;;;;;;15.11;74.06;98782.97;5134983;27;42792;-84
2024/04/06 02:48:59;;;;;;;1.63;1.53;;;;;;;15.06;74.13;98790.50;5099143;27;42676;-81
2024/04/06 02:51:27;;;;;;;1.57;1.40;;;;;;;14.88;74.28;98779.50;5099271;27;40351;-83
2024/04/06 02:53:54;;;;;;;1.50;1.33;;;;;;;14.89;73.95;98777.69;5116520;27;41694;-85
2024/04/06 02:56:21;;;;;;;1.40;1.30;;;;;;;14.90;74.96;98774.06;5116238;27;42467;-84
2024/04/06 02:58:49;;;;;;;1.40;1.30;;;;;;;14.73;75.16;98773.59;5133255;27;42286;-83
2024/04/06 03:01:15;;;;;;;1.80;1.53;;;;;;;14.78;75.10;98785.72;5099061;27;41233;-85
2024/04/06 03:03:42;;;;;;;1.60;1.43;;;;;;;14.73;75.30;98789.59;5115564;27;40519;-84
2024/04/06 03:06:09;;;;;;;1.47;1.33;;;;;;;14.66;75.51;98783.06;5099142;27;43267;-85
2024/04/06 03:08:38;;;;;;;1.40;1.30;;;;;;;14.55;75.42;98775.09;5116008;27;42175;-86
2024/04/06 03:11:04;;;;;;;1.30;1.20;;;;;;;14.45;75.41;98758.16;5133314;27;40184;-86
2024/04/06 03:13:32;;;;;;;1.53;1.30;;;;;;;14.52;75.75;98780.66;5098616;27;43250;-85
2024/04/06 03:15:58;;;;;;;2.30;1.17;;;;;;;14.34;76.16;98761.59;5115614;27;44460;-83
2024/04/06 03:18:26;;;;;;;1.60;1.40;;;;;;;14.35;76.39;98762.44;5098760;27;41719;-83
2024/04/06 03:20:52;;;;;;;1.77;1.67;;;;;;;14.31;77.19;98755.69;5116072;27;39830;-85
2024/04/06 03:23:19;;;;;;;1.83;1.20;;;;;;;14.33;77.54;98770.59;5115753;27;40737;-81
2024/04/06 03:25:48;;;;;;;1.87;1.40;;;;;;;14.31;77.63;98777.84;5115758;27;43184;-85
2024/04/06 03:28:17;;;;;;;1.87;1.50;;;;;;;14.29;77.17;98781.59;5115843;27;42125;-81
2024/04/06 03:30:44;;;;;;;1.73;1.23;;;;;;;14.27;77.16;98788.88;5115014;27;39151;-84
2024/04/06 03:33:11;;;;;;;2.90;1.50;;;;;;;14.24;77.49;98791.75;5116038;27;41678;-83
2024/04/06 03:35:38;;;;;;;1.93;1.47;;;;;;;14.17;77.47;98785.22;5115849;27;42919;-83
2024/04/06 03:38:05;;;;;;;1.20;1.10;;;;;;;14.03;77.79;98772.97;5115341;27;41902;-82
2024/04/06 03:40:33;;;;;;;1.43;1.30;;;;;;;14.20;77.42;98801.81;5098426;27;40391;-82
2024/04/06 03:43:01;;;;;;;2.57;1.20;;;;;;;14.10;77.37;98797.31;5115386;27;40385;-81
2024/04/06 03:45:28;;;;;;;1.13;1.07;;;;;;;14.20;77.08;98812.47;5098346;27;43102;-82
2024/04/06 03:47:55;;;;;;;1.40;1.30;;;;;;;14.06;76.93;98795.88;5135290;27;42217;-82
2024/04/06 03:50:22;;;;;;;1.50;1.40;;;;;;;14.13;77.03;98819.22;5119265;27;39065;-83
2024/04/06 03:52:50;;;;;;;1.50;1.40;;;;;;;14.09;77.32;98827.59;5119102;27;42895;-84
2024/04/06 03:55:16;;;;;;;1.30;1.20;;;;;;;13.95;77.52;98824.19;5101893;27;41679;-84
2024/04/06 03:57:43;;;;;;;1.50;1.30;;;;;;;13.97;78.11;98824.88;5118845;27;43165;-82
2024/04/06 04:00:14;;;;;;;1.50;1.40;;;;;;;13.94;78.81;98822.47;5101677;27;39116;-83
2024/04/06 04:02:42;;;;;;;1.40;1.30;;;;;;;13.81;78.32;98824.38;5134204;27;41764;-83
2024/04/06 04:05:09;;;;;;;1.37;1.23;;;;;;;13.75;78.08;98816.84;5101711;27;43379;-84
2024/04/06 04:07:36;;;;;;;1.40;1.30;;;;;;;13.77;78.91;98832.72;5118490;27;42206;-85
2024/04/06 04:10:03;;;;;;;2.47;1.50;;;;;;;13.80;78.63;98838.66;5102095;27;40462;-81
2024/04/06 04:12:33;;;;;;;3.83;1.60;;;;;;;13.75;78.90;98838.16;5118695;27;40708;-84
2024/04/06 04:15:00;;;;;;;1.80;1.40;;;;;;;13.73;79.03;98834.75;5101274;27;43360;-84
2024/04/06 04:17:30;;;;;;;2.43;1.30;;;;;;;13.59;78.95;98822.50;5136941;27;42431;-84
2024/04/06 04:19:56;;;;;;;1.50;1.40;;;;;;;13.57;79.01;98823.59;5118946;27;39992;-82
2024/04/06 04:22:23;;;;;;;2.10;1.47;;;;;;;13.42;79.51;98798.97;5135893;27;41753;-85
2024/04/06 04:24:50;;;;;;;1.50;1.40;;;;;;;13.54;79.59;98823.81;5118657;27;44102;-84
2024/04/06 04:27:18;;;;;;;1.40;1.30;;;;;;;13.54;80.31;98823.81;5118455;27;43444;-84
2024/04/06 04:29:44;;;;;;;1.47;1.30;;;;;;;13.41;80.87;98809.72;5119017;27;40147;-83
2024/04/06 04:32:12;;;;;;;2.10;1.40;;;;;;;13.40;81.50;98808.03;5115935;27;43193;-80
2024/04/06 04:34:40;;;;;;;1.97;1.77;;;;;;;13.46;81.40;98826.19;5148469;27;42980;-82
2024/04/06 04:37:08;;;;;;;2.17;1.33;;;;;;;13.25;81.13;98792.25;5101806;27;42351;-82
2024/04/06 04:39:34;;;;;;;2.47;1.60;;;;;;;13.43;81.00;98827.28;5118308;27;40567;-84
2024/04/06 04:42:02;;;;;;;2.03;1.80;;;;;;;13.27;80.63;98808.94;5118564;27;41019;-83
2024/04/06 04:44:28;;;;;;;3.30;1.73;;;;;;;13.36;80.56;98834.00;5118574;27;43027;-85
2024/04/06 04:46:56;;;;;;;1.90;1.57;;;;;;;13.33;80.63;98847.53;5118419;27;42110;-83
2024/04/06 04:49:24;;;;;;;2.80;1.63;;;;;;;13.22;80.80;98835.03;5117997;27;39278;-82
2024/04/06 04:51:54;;;;;;;1.97;1.50;;;;;;;13.27;81.11;98840.00;5117866;27;41960;-83
2024/04/06 04:54:20;;;;;;;1.90;1.57;;;;;;;13.15;80.95;98828.47;5117709;27;42848;-84
2024/04/06 04:56:48;;;;;;;1.87;1.53;;;;;;;13.22;80.62;98858.97;5136933;27;43014;-85
2024/04/06 04:59:14;;;;;;;1.30;1.20;;;;;;;13.21;80.80;98859.94;5101083;27;40133;-84
2024/04/06 05:01:42;;;;;;;1.83;1.70;;;;;;;13.19;81.07;98864.50;5118903;27;40804;-85
2024/04/06 05:04:08;;;;;;;3.47;2.03;;;;;;;13.16;82.24;98862.06;5137648;27;42783;-84
2024/04/06 05:06:36;;;;;;;2.10;1.90;;;;;;;13.11;82.71;98848.22;5102706;27;41244;-82
2024/04/06 05:09:06;;;;;;;3.17;2.00;;;;;;;13.03;82.23;98842.63;5137203;27;40076;-84
2024/04/06 05:11:34;;;;;;;1.90;1.70;;;;;;;13.09;82.82;98850.16;5118588;27;42150;-83
2024/04/06 05:14:00;;;;;;;3.03;1.90;;;;;;;13.21;82.53;98869.72;5136675;27;42751;-83
2024/04/06 05:16:28;;;;;;;3.07;1.77;;;;;;;13.15;82.54;98857.69;5117961;27;41150;-82
2024/04/06 05:18:54;;;;;;;3.37;2.00;;;;;;;13.13;82.90;98851.63;5117752;27;39169;-83
2024/04/06 05:21:24;;;;;;;3.20;1.90;;;;;;;13.26;82.97;98881.69;5117372;27;40376;-81
2024/04/06 05:23:51;;;;;;;1.50;1.40;;;;;;;13.28;82.46;98879.78;5117657;27;43873;-83
2024/04/06 05:26:20;;;;;;;1.60;1.40;;;;;;;13.33;82.33;98881.28;5100725;27;41593;-85
2024/04/06 05:28:48;;;;;;;1.53;1.43;;;;;;;13.37;82.09;98885.38;5117825;27;38873;-82
2024/04/06 05:31:15;;;;;;;2.33;1.30;;;;;;;13.40;81.96;98898.47;5115921;27;41061;-85
2024/04/06 05:33:42;;;;;;;1.50;1.40;;;;;;;13.30;81.60;98877.88;5116830;27;41496;-84
2024/04/06 05:36:10;;;;;;;2.07;1.27;;;;;;;13.47;81.50;98903.25;5100256;27;41302;-79
2024/04/06 05:38:36;;;;;;;2.27;1.40;;;;;;;13.51;81.16;98914.47;5117038;27;39610;-85
2024/04/06 05:41:04;;;;;;;2.63;1.80;;;;;;;13.54;80.78;98908.94;5099781;27;40610;-81
2024/04/06 05:43:32;;;;;;;2.33;1.70;;;;;;;13.30;80.86;98874.34;5099567;27;44283;-85
2024/04/06 05:46:01;;;;;;;1.70;1.43;;;;;;;13.52;80.31;98911.72;5135186;27;42557;-85
2024/04/06 05:48:29;;;;;;;2.03;1.30;;;;;;;13.59;80.07;98897.00;5099637;27;40153;-83
2024/04/06 05:50:57;;;;;;;1.90;1.60;;;;;;;13.82;79.98;98915.75;5135413;27;42821;-82
2024/04/06 05:53:25;;;;;;;1.80;1.40;;;;;;;14.00;79.69;98917.84;5116921;27;42741;-82
2024/04/06 05:55:52;;;;;;;2.50;1.60;;;;;;;13.98;79.91;98892.28;5117079;27;42237;-85
2024/04/06 05:58:19;;;;;;;2.73;1.80;;;;;;;14.09;80.44;98894.19;5117957;27;40161;-85
2024/04/06 06:00:49;;;;;;;2.63;2.00;;;;;;;14.24;80.39;98909.81;5117088;27;40743;-84
2024/04/06 06:03:16;;;;;;;2.00;1.67;;;;;;;14.29;79.96;98897.00;5099636;27;43583;-82
2024/04/06 06:05:43;;;;;;;2.00;1.53;;;;;;;14.48;80.13;98907.09;5099366;27;40607;-81
2024/04/06 06:08:10;;;;;;;2.07;1.70;;;;;;;14.53;79.58;98880.94;5116645;27;40677;-82
2024/04/06 06:10:37;;;;;;;2.00;1.70;;;;;;;14.82;79.33;98901.81;5082566;27;42350;-81
2024/04/06 06:13:04;;;;;;;2.00;1.60;;;;;;;15.01;78.47;98891.38;5098719;27;42074;-82
2024/04/06 06:15:31;;;;;;;2.33;1.67;;;;;;;15.29;77.57;98896.19;5134655;27;43654;-81
2024/04/06 06:18:00;;;;;;;2.77;1.97;;;;;;;15.40;77.25;98885.47;5134866;27;40210;-84
2024/04/06 06:20:26;;;;;;;4.47;2.30;;;;;;;15.66;76.98;98906.56;5098878;27;43195;-82
2024/04/06 06:22:54;;;;;;;2.03;1.80;;;;;;;15.67;76.91;98886.88;5116090;27;43195;-82
2024/04/06 06:25:21;;;;;;;2.63;2.00;;;;;;;15.76;77.06;98880.78;5134769;27;42521;-81
2024/04/06 06:27:48;;;;;;;2.43;1.90;;;;;;;15.78;77.30;98863.66;5116493;27;39016;-80
2024/04/06 06:30:15;;;;;;;2.37;1.80;;;;;;;15.98;77.09;98878.00;5134858;27;42095;-81
2024/04/06 06:32:42;;;;;;;2.57;2.00;;;;;;;16.06;76.81;98869.34;5117225;27;43445;-81
2024/04/06 06:35:11;;;;;;;2.33;1.90;;;;;;;16.19;76.71;98883.38;5116959;27;41993;-82
2024/04/06 06:37:38;;;;;;;2.37;1.90;;;;;;;16.39;76.36;98903.88;5116498;27;39214;-80
2024/04/06 06:40:06;;;;;;;3.23;1.60;;;;;;;16.40;76.03;98883.34;5116878;27;41034;-83
2024/04/06 06:42:33;;;;;;;3.33;2.13;;;;;;;16.52;75.38;98892.97;5099657;27;41957;-83
2024/04/06 06:45:05;;;;;;;2.20;1.87;;;;;;;16.67;75.29;98898.88;5133258;27;43149;-82
2024/04/06 06:47:32;;;;;;;2.23;1.80;;;;;;;16.79;74.89;98901.31;5112994;27;40113;-81
2024/04/06 06:49:59;;;;;;;2.27;1.80;;;;;;;16.86;74.20;98899.78;5133133;27;42090;-83
2024/04/06 06:52:28;;;;;;;2.27;2.07;;;;;;;17.05;73.84;98907.06;5116016;27;43203;-85
2024/04/06 06:54:55;;;;;;;3.80;2.20;;;;;;;17.11;73.52;98889.59;5115542;27;43313;-84
2024/04/06 06:57:23;;;;;;;2.33;1.80;;;;;;;17.34;72.82;98909.81;5099054;27;39032;-84
2024/04/06 06:59:49;;;;;;;3.97;1.97;;;;;;;17.49;72.62;98903.09;5098683;27;40667;-81
2024/04/06 07:02:17;;;;;;;2.47;1.60;;;;;;;17.86;71.61;98914.00;5098766;27;42676;-82
2024/04/06 07:04:44;;;;;;;2.20;2.00;;;;;;;18.15;70.65;98922.06;5098423;27;41407;-83
2024/04/06 07:07:12;;;;;;;1.93;1.73;;;;;;;18.27;70.04;98912.03;5133268;27;40029;-80
2024/04/06 07:09:40;;;;;;;2.30;1.93;;;;;;;18.83;69.32;98935.38;5098279;27;41693;-83
2024/04/06 07:12:08;;;;;;;1.87;1.77;;;;;;;19.32;67.77;98934.19;5098414;27;42096;-84
2024/04/06 07:14:35;;;;;;;1.70;1.60;;;;;;;19.67;66.32;98950.41;5115123;27;41186;-83
2024/04/06 07:17:02;;;;;;;2.33;1.73;;;;;;;19.93;65.89;98952.34;5115620;27;39852;-81
2024/04/06 07:19:29;;;;;;;3.10;2.03;;;;;;;20.15;65.39;98949.22;5115226;27;41859;-83
2024/04/06 07:21:56;;;;;;;4.83;1.97;;;;;;;20.42;64.18;98938.38;5115303;27;44145;-82
2024/04/06 07:24:23;;;;;;;3.90;1.90;;;;;;;20.76;62.98;98943.03;5115662;27;41476;-81
2024/04/06 07:26:52;;;;;;;3.97;2.00;;;;;;;21.14;62.49;98950.63;5115417;27;40425;-82
2024/04/06 07:29:18;;;;;;;1.60;1.40;;;;;;;21.69;61.03;98969.09;5135578;27;41915;-80
2024/04/06 07:31:46;;;;;;;1.77;1.40;;;;;;;22.16;58.48;98985.56;5115645;27;42513;-82
2024/04/06 07:34:14;;;;;;;1.50;1.40;;;;;;;22.57;56.01;98981.06;5109398;27;20278;-81
2024/04/06 07:36:41;;;;;;;1.70;1.33;;;;;;;23.05;54.31;99003.66;5115887;27;39042;-84
2024/04/06 07:39:07;;;;;;;1.43;1.20;;;;;;;23.37;53.07;98999.22;5098328;27;40911;-84
2024/04/06 07:41:35;;;;;;;3.07;1.40;;;;;;;23.64;51.88;98985.25;5114864;27;41716;-86
2024/04/06 07:44:03;;;;;;;2.50;1.40;;;;;;;24.07;50.52;98991.13;5115856;27;42167;-84
2024/04/06 07:46:31;;;;;;;3.23;1.20;;;;;;;24.46;47.58;99035.25;5097698;27;41435;-81
2024/04/06 07:48:57;;;;;;;2.07;1.17;;;;;;;24.58;47.75;99025.66;5115173;27;42260;-82
2024/04/06 07:51:25;;;;;;;0.97;0.90;;;;;;;24.80;47.62;99009.56;5097977;27;43067;-83
2024/04/06 07:53:51;;;;;;;2.07;1.33;;;;;;;25.26;46.07;99045.56;5133717;27;41989;-85
2024/04/06 07:56:19;;;;;;;3.53;1.83;;;;;;;25.64;44.30;99047.22;5097760;27;41033;-82
2024/04/06 07:58:45;;;;;;;2.70;1.30;;;;;;;26.09;44.23;99035.28;5097947;27;40492;-81
2024/04/06 08:01:14;;;;;;;2.23;1.30;;;;;;;27.08;43.58;99027.34;5097688;27;42905;-85
2024/04/06 08:03:41;;;;;;;1.35;1.25;;;;;;;28.34;41.01;99042.53;5132234;27;42361;-87
2024/04/06 08:06:08;;;;;;;1.88;1.30;;;;;;;28.84;39.67;99049.38;5115242;27;40283;-82
2024/04/06 08:08:35;;;;;;;1.25;1.10;;;;;;;28.95;38.36;99057.75;5114811;27;40585;-82
2024/04/06 08:11:02;;;;;;;2.72;1.20;;;;;;;29.22;37.74;99052.31;5114194;27;43272;-83
2024/04/06 08:13:29;;;;;;;2.03;1.17;;;;;;;29.33;36.62;99065.31;5114500;27;41350;-84
2024/04/06 08:15:56;;;;;;;2.53;1.10;;;;;;;29.04;37.66;99050.25;5096953;27;40474;-84
2024/04/06 08:18:24;;;;;;;1.52;1.15;;;;;;;28.81;38.38;99045.16;5115100;27;41024;-84
2024/04/06 08:20:52;;;;;;;3.08;1.20;;;;;;;28.62;38.41;99051.41;5114605;27;42914;-82
2024/04/06 08:23:18;;;;;;;1.60;1.23;;;;;;;28.72;38.00;99051.00;5114392;27;42293;-83
2024/04/06 08:25:46;;;;;;;1.35;1.25;;;;;;;29.29;38.26;99048.56;5097202;27;39225;-82
2024/04/06 08:28:12;;;;;;;1.25;1.13;;;;;;;29.67;37.12;99022.47;5097563;27;41256;-85
2024/04/06 08:30:40;;;;;;;1.30;1.10;;;;;;;30.29;36.31;99038.22;5096347;27;42605;-84
2024/04/06 08:33:06;;;;;;;1.83;1.23;;;;;;;30.89;36.30;99034.09;5128288;27;42364;-83
2024/04/06 08:35:37;;;;;;;1.85;1.40;;;;;;;31.06;35.61;99035.19;5116360;27;40634;-83
2024/04/06 08:38:04;;;;;;;1.42;1.23;;;;;;;31.27;35.73;99055.06;5100849;27;41984;-83
2024/04/06 08:40:32;;;;;;;1.05;0.90;;;;;;;31.11;34.55;99050.13;5117321;27;43162;-82
2024/04/06 08:43:05;;;;;;;2.15;1.00;;;;;;;30.90;34.86;99046.69;5136079;27;42342;-82
2024/04/06 08:45:34;;;;;;;1.10;1.00;;;;;;;30.78;34.49;99053.94;5117049;27;38554;-84
2024/04/06 08:48:00;;;;;;;1.00;0.88;;;;;;;30.59;35.80;99024.81;5135194;27;41958;-83
2024/04/06 08:50:29;;;;;;;1.38;1.02;;;;;;;30.71;35.67;99037.56;5100123;27;42347;-82
2024/04/06 08:52:57;;;;;;;2.35;1.25;;;;;;;31.76;34.33;99046.81;5117858;27;41429;-85
2024/04/06 08:55:25;;;;;;;1.58;1.10;;;;;;;32.82;32.44;99050.94;5118047;27;40830;-85
2024/04/06 08:57:52;;;;;;;1.55;1.08;;;;;;;34.22;31.38;99067.44;5101399;27;41860;-85
2024/04/06 09:00:26;;;;;;;1.60;0.75;;;;;;;35.89;28.91;99078.72;5118868;27;41617;-84
2024/04/06 09:02:53;;;;;;;1.33;0.90;;;;;;;36.16;27.19;99087.06;5101480;27;42602;-83
2024/04/06 09:05:20;;;;;;;1.35;0.90;;;;;;;35.82;27.98;99083.59;5117499;27;40192;-83
2024/04/06 09:07:47;;;;;;;1.15;0.90;;;;;;;35.27;27.59;99081.59;5117255;27;42559;-84
2024/04/06 09:10:17;;;;;;;1.55;0.90;;;;;;;34.67;28.68;99072.19;5117103;27;42219;-85
2024/04/06 09:12:43;;;;;;;1.88;0.90;;;;;;;34.48;29.59;99055.91;5117262;27;40973;-83
2024/04/06 09:15:17;;;;;;;1.92;1.05;;;;;;;34.40;30.67;99048.03;5135323;27;40610;-86
2024/04/06 09:17:44;;;;;;;1.17;1.00;;;;;;;34.31;30.56;99055.00;5100446;27;42107;-83
2024/04/06 09:20:12;;;;;;;1.08;1.02;;;;;;;34.24;30.84;99049.63;5117051;27;42947;-83
2024/04/06 09:22:41;;;;;;;2.38;1.05;;;;;;;34.43;29.81;99053.06;5099536;27;41857;-85
2024/04/06 09:25:08;;;;;;;2.97;1.30;;;;;;;34.73;29.40;99040.97;5099567;27;40659;-87
2024/04/06 09:27:43;;;;;;;1.30;1.08;;;;;;;35.24;28.39;99026.97;5116730;27;40803;-88
2024/04/06 09:30:11;;;;;;;1.75;1.13;;;;;;;35.32;27.97;99049.72;5114848;27;43570;-87
2024/04/06 09:32:39;;;;;;;1.48;1.05;;;;;;;35.64;27.49;99048.00;5099280;27;42496;-86
2024/04/06 09:35:07;;;;;;;1.38;0.80;;;;;;;35.57;28.15;99037.16;5116592;27;38832;-87
2024/04/06 09:37:37;;;;;;;0.90;0.85;;;;;;;36.07;26.58;99051.94;5135133;27;42110;-83
2024/04/06 09:40:08;;;;;;;0.70;0.60;;;;;;;36.94;24.93;99052.69;5099767;27;43044;-87
2024/04/06 09:42:36;;;;;;;3.13;1.00;;;;;;;37.43;23.84;99049.78;5116168;27;40888;-86
2024/04/06 09:45:06;;;;;;;1.70;1.02;;;;;;;37.30;24.87;99044.72;5099155;27;40233;-83
2024/04/06 09:47:33;;;;;;;1.50;0.90;;;;;;;37.13;26.11;99022.72;5099798;27;40654;-89
2024/04/06 09:50:01;;;;;;;1.38;1.00;;;;;;;37.38;25.49;99027.63;5116749;27;42233;-88
2024/04/06 09:52:28;;;;;;;1.42;0.80;;;;;;;36.69;24.37;99036.69;5125849;27;43488;-81
2024/04/06 09:54:57;;;;;;;1.33;1.00;;;;;;;36.14;24.38;99047.03;5109097;27;41125;-85
2024/04/06 09:57:23;;;;;;;1.20;0.90;;;;;;;35.81;25.41;99029.53;5125497;27;40632;-84
2024/04/06 10:00:07;;;;;;;1.02;0.80;;;;;;;35.78;25.03;99016.25;5102523;27;43137;-88
2024/04/06 10:02:34;;;;;;;1.00;0.80;;;;;;;36.00;24.64;99025.38;5101855;27;41983;-84
2024/04/06 10:05:05;;;;;;;1.20;0.63;;;;;;;36.00;24.21;99027.28;5101042;27;39042;-89
2024/04/06 10:07:33;;;;;;;1.38;0.80;;;;;;;36.22;24.25;99027.34;5118014;27;41915;-87
2024/04/06 10:10:02;;;;;;;2.13;0.80;;;;;;;36.66;23.89;99011.50;5117398;27;43416;-89
2024/04/06 10:12:41;;;;;;;0.60;0.60;;;;;;;37.49;22.51;99020.22;5116829;27;42068;-84
2024/04/06 10:15:13;;;;;;;1.10;0.73;;;;;;;37.56;22.93;99026.38;5099246;27;40856;-85
2024/04/06 10:17:46;;;;;;;1.00;0.73;;;;;;;36.75;23.54;99025.69;5116317;27;42397;-88
2024/04/06 10:20:15;;;;;;;1.48;0.80;;;;;;;36.10;24.59;99012.81;5133825;27;41940;-83
2024/04/06 10:22:55;;;;;;;1.42;1.00;;;;;;;35.52;24.36;98997.69;5116917;27;43136;-84
2024/04/06 10:25:26;;;;;;;0.82;0.82;;;;;;;35.59;24.40;99017.63;5117358;27;39087;-86
2024/04/06 10:28:00;;;;;;;1.52;0.65;;;;;;;35.57;24.58;99003.28;5119252;27;41977;-80
2024/04/06 10:30:30;;;;;;;1.55;0.60;;;;;;;35.40;25.05;99013.47;5107793;27;41625;-81
2024/04/06 10:32:56;;;;;;;1.52;0.88;;;;;;;35.90;24.24;99000.44;5116356;27;42083;-85
2024/04/06 10:35:25;;;;;;;1.20;0.90;;;;;;;36.95;23.64;98992.75;5099303;27;38927;-86
2024/04/06 10:37:51;;;;;;;1.00;0.80;;;;;;;38.00;22.53;99013.91;5116615;27;40965;-83
2024/04/06 10:40:23;;;;;;;1.38;0.82;;;;;;;38.61;21.62;99016.06;5098608;27;41775;-84
2024/04/06 10:42:50;;;;;;;1.65;1.02;;;;;;;39.05;21.25;99020.03;5116869;27;42967;-83
2024/04/06 10:45:18;;;;;;;1.23;0.80;;;;;;;39.13;21.43;99013.09;5115659;27;40642;-81
2024/04/06 10:47:46;;;;;;;1.05;0.65;;;;;;;39.78;20.75;99014.09;5134443;27;41770;-82
2024/04/06 10:50:14;;;;;;;0.95;0.80;;;;;;;40.85;21.51;98972.75;5098127;27;42232;-86
2024/04/06 10:52:42;;;;;;;2.08;1.27;;;;;;;41.46;19.97;99011.94;5134307;27;42016;-82
2024/04/06 10:55:15;;;;;;;0.80;0.70;;;;;;;41.20;19.07;99013.31;5133672;27;39912;-83
2024/04/06 10:57:41;;;;;;;0.95;0.80;;;;;;;41.03;19.45;98987.91;5097662;27;43117;-82
2024/04/06 11:00:10;;;;;;;0.82;0.60;;;;;;;40.64;20.41;98987.91;5097993;27;41782;-82
2024/04/06 11:02:37;;;;;;;1.40;0.70;;;;;;;40.27;21.67;98971.72;5115152;27;42074;-82
2024/04/06 11:05:09;;;;;;;1.17;0.90;;;;;;;39.85;20.62;98987.75;5098106;27;40283;-83
2024/04/06 11:07:37;;;;;;;0.80;0.80;;;;;;;39.47;20.78;98991.16;5115503;27;40481;-84
2024/04/06 11:10:06;;;;;;;0.68;0.57;;;;;;;39.67;21.45;98990.28;5098219;27;41981;-86
2024/04/06 11:12:35;;;;;;;0.77;0.70;;;;;;;40.34;20.47;98989.75;5115181;27;42432;-83
2024/04/06 11:15:03;;;;;;;2.75;0.80;;;;;;;40.98;19.88;98987.94;5097931;27;39161;-84
2024/04/06 11:17:30;;;;;;;1.33;0.70;;;;;;;41.37;19.38;98988.69;5115046;27;42519;-83
2024/04/06 11:20:02;;;;;;;0.73;0.73;;;;;;;41.78;18.56;98991.06;5114957;27;41850;-82
2024/04/06 11:22:30;;;;;;;0.63;0.63;;;;;;;42.48;18.23;99000.44;5112040;27;42240;-84
2024/04/06 11:24:58;;;;;;;1.55;0.90;;;;;;;43.58;16.75;98990.56;5097658;27;39190;-82
2024/04/06 11:27:27;;;;;;;1.00;0.80;;;;;;;44.28;16.00;99014.50;5098326;27;40678;-82
2024/04/06 11:29:54;;;;;;;1.00;0.90;;;;;;;44.65;15.74;99000.25;5097559;27;41563;-82
2024/04/06 11:32:24;;;;;;;1.40;0.85;;;;;;;44.54;15.66;98989.63;5114936;27;42950;-82
2024/04/06 11:34:51;;;;;;;1.55;0.68;;;;;;;43.57;15.82;98993.63;5114924;27;40637;-85
2024/04/06 11:37:21;;;;;;;1.50;0.77;;;;;;;42.64;18.48;98978.78;5115069;27;41822;-82